sensor_id;sensor_type;location;lat;lon;timestamp;P1;durP1;ratioP1;P2;durP2;ratioP2
51848;SDS011;38952;51.090;-1.832;2022-08-25T00:01:35;3.78;;;2.17;;
51848;SDS011;38952;51.090;-1.832;2022-08-25T00:04:04;3.00;;;2.20;;
51848;SDS011;38952;51.090;-1.832;2022-08-25T00:06:32;3.33;;;2.50;;
51848;SDS011;38952;51.090;-1.832;2022-08-25T00:08:58;3.67;;;2.70;;
51848;SDS011;38952;51.090;-1.832;2022-08-25T00:11:24;4.43;;;3.25;;
51848;SDS011;38952;51.090;-1.832;2022-08-25T00:13:53;4.05;;;2.97;;
51848;SDS011;38952;51.090;-1.832;2022-08-25T00:16:22;4.13;;;2.80;;
51848;SDS011;38952;51.090;-1.832;2022-08-25T00:18:52;3.47;;;2.83;;
51848;SDS011;38952;51.090;-1.832;2022-08-25T00:21:21;4.03;;;2.70;;
51848;SDS011;38952;51.090;-1.832;2022-08-25T00:23:48;4.75;;;3.00;;
51848;SDS011;38952;51.090;-1.832;2022-08-25T00:26:14;4.20;;;3.30;;
51848;SDS011;38952;51.090;-1.832;2022-08-25T00:28:40;7.10;;;4.38;;
51848;SDS011;38952;51.090;-1.832;2022-08-25T00:31:10;5.00;;;3.72;;
51848;SDS011;38952;51.090;-1.832;2022-08-25T00:33:37;8.23;;;4.47;;
51848;SDS011;38952;51.090;-1.832;2022-08-25T00:36:02;6.60;;;4.90;;
51848;SDS011;38952;51.090;-1.832;2022-08-25T00:38:28;6.50;;;4.78;;
51848;SDS011;38952;51.090;-1.832;2022-08-25T00:40:54;7.78;;;5.55;;
51848;SDS011;38952;51.090;-1.832;2022-08-25T00:46:09;7.55;;;5.20;;
51848;SDS011;38952;51.090;-1.832;2022-08-25T00:48:42;5.28;;;4.05;;
51848;SDS011;38952;51.090;-1.832;2022-08-25T00:51:10;6.55;;;5.15;;
51848;SDS011;38952;51.090;-1.832;2022-08-25T00:53:40;9.63;;;6.05;;
51848;SDS011;38952;51.090;-1.832;2022-08-25T00:56:07;5.63;;;5.03;;
51848;SDS011;38952;51.090;-1.832;2022-08-25T00:58:33;7.50;;;6.00;;
51848;SDS011;38952;51.090;-1.832;2022-08-25T01:01:00;6.40;;;4.70;;
51848;SDS011;38952;51.090;-1.832;2022-08-25T01:03:26;6.43;;;4.50;;
51848;SDS011;38952;51.090;-1.832;2022-08-25T01:05:53;7.10;;;5.05;;
51848;SDS011;38952;51.090;-1.832;2022-08-25T01:08:20;9.35;;;6.35;;
51848;SDS011;38952;51.090;-1.832;2022-08-25T01:10:51;6.70;;;5.13;;
51848;SDS011;38952;51.090;-1.832;2022-08-25T01:13:51;6.72;;;5.28;;
51848;SDS011;38952;51.090;-1.832;2022-08-25T01:16:12;6.22;;;4.47;;
51848;SDS011;38952;51.090;-1.832;2022-08-25T01:18:52;8.15;;;5.70;;
51848;SDS011;38952;51.090;-1.832;2022-08-25T01:21:21;7.70;;;5.68;;
51848;SDS011;38952;51.090;-1.832;2022-08-25T01:23:48;9.30;;;5.85;;
51848;SDS011;38952;51.090;-1.832;2022-08-25T01:26:19;8.60;;;5.10;;
51848;SDS011;38952;51.090;-1.832;2022-08-25T01:28:48;6.77;;;4.73;;
51848;SDS011;38952;51.090;-1.832;2022-08-25T01:31:33;8.70;;;5.78;;
51848;SDS011;38952;51.090;-1.832;2022-08-25T01:34:00;6.47;;;4.60;;
51848;SDS011;38952;51.090;-1.832;2022-08-25T01:36:27;8.98;;;5.38;;
51848;SDS011;38952;51.090;-1.832;2022-08-25T01:38:53;5.55;;;4.15;;
51848;SDS011;38952;51.090;-1.832;2022-08-25T01:41:25;7.50;;;6.63;;
51848;SDS011;38952;51.090;-1.832;2022-08-25T01:44:04;7.67;;;6.53;;
51848;SDS011;38952;51.090;-1.832;2022-08-25T01:46:32;9.75;;;5.75;;
51848;SDS011;38952;51.090;-1.832;2022-08-25T01:48:59;8.75;;;5.82;;
51848;SDS011;38952;51.090;-1.832;2022-08-25T01:51:27;6.13;;;4.82;;
51848;SDS011;38952;51.090;-1.832;2022-08-25T01:53:54;7.55;;;5.32;;
51848;SDS011;38952;51.090;-1.832;2022-08-25T01:56:19;9.15;;;5.70;;
51848;SDS011;38952;51.090;-1.832;2022-08-25T01:58:46;7.22;;;5.57;;
51848;SDS011;38952;51.090;-1.832;2022-08-25T02:01:14;4.72;;;3.53;;
51848;SDS011;38952;51.090;-1.832;2022-08-25T02:03:43;6.25;;;4.60;;
51848;SDS011;38952;51.090;-1.832;2022-08-25T02:06:11;4.93;;;3.58;;
51848;SDS011;38952;51.090;-1.832;2022-08-25T02:08:38;5.32;;;3.53;;
51848;SDS011;38952;51.090;-1.832;2022-08-25T02:11:05;4.30;;;3.33;;
51848;SDS011;38952;51.090;-1.832;2022-08-25T02:13:30;6.95;;;5.10;;
51848;SDS011;38952;51.090;-1.832;2022-08-25T02:15:56;6.00;;;4.68;;
51848;SDS011;38952;51.090;-1.832;2022-08-25T02:18:23;5.93;;;3.63;;
51848;SDS011;38952;51.090;-1.832;2022-08-25T02:20:49;5.43;;;4.30;;
51848;SDS011;38952;51.090;-1.832;2022-08-25T02:23:16;6.40;;;4.47;;
51848;SDS011;38952;51.090;-1.832;2022-08-25T02:25:42;3.45;;;2.67;;
51848;SDS011;38952;51.090;-1.832;2022-08-25T02:28:08;4.65;;;3.50;;
51848;SDS011;38952;51.090;-1.832;2022-08-25T02:30:34;6.25;;;3.53;;
51848;SDS011;38952;51.090;-1.832;2022-08-25T02:33:01;4.28;;;3.50;;
51848;SDS011;38952;51.090;-1.832;2022-08-25T02:35:27;2.95;;;2.55;;
51848;SDS011;38952;51.090;-1.832;2022-08-25T02:37:53;5.30;;;3.92;;
51848;SDS011;38952;51.090;-1.832;2022-08-25T02:40:19;5.75;;;4.63;;
51848;SDS011;38952;51.090;-1.832;2022-08-25T02:42:49;2.90;;;2.53;;
51848;SDS011;38952;51.090;-1.832;2022-08-25T02:45:15;3.60;;;3.20;;
51848;SDS011;38952;51.090;-1.832;2022-08-25T02:47:41;4.97;;;4.07;;
51848;SDS011;38952;51.090;-1.832;2022-08-25T02:50:07;7.40;;;5.60;;
51848;SDS011;38952;51.090;-1.832;2022-08-25T02:52:34;8.75;;;5.35;;
51848;SDS011;38952;51.090;-1.832;2022-08-25T02:54:59;8.73;;;5.60;;
51848;SDS011;38952;51.090;-1.832;2022-08-25T02:57:29;5.07;;;4.43;;
51848;SDS011;38952;51.090;-1.832;2022-08-25T02:59:55;8.70;;;5.80;;
51848;SDS011;38952;51.090;-1.832;2022-08-25T03:02:23;5.45;;;4.15;;
51848;SDS011;38952;51.090;-1.832;2022-08-25T03:04:49;7.45;;;4.50;;
51848;SDS011;38952;51.090;-1.832;2022-08-25T03:07:16;5.75;;;4.68;;
51848;SDS011;38952;51.090;-1.832;2022-08-25T03:09:42;4.88;;;4.15;;
51848;SDS011;38952;51.090;-1.832;2022-08-25T03:12:09;7.13;;;5.00;;
51848;SDS011;38952;51.090;-1.832;2022-08-25T03:14:36;5.13;;;3.83;;
51848;SDS011;38952;51.090;-1.832;2022-08-25T03:17:04;5.50;;;4.22;;
51848;SDS011;38952;51.090;-1.832;2022-08-25T03:19:33;5.30;;;4.20;;
51848;SDS011;38952;51.090;-1.832;2022-08-25T03:21:59;6.25;;;4.47;;
51848;SDS011;38952;51.090;-1.832;2022-08-25T03:24:27;4.20;;;3.80;;
51848;SDS011;38952;51.090;-1.832;2022-08-25T03:26:53;5.43;;;3.75;;
51848;SDS011;38952;51.090;-1.832;2022-08-25T03:29:19;6.60;;;4.50;;
51848;SDS011;38952;51.090;-1.832;2022-08-25T03:31:53;3.87;;;3.37;;
51848;SDS011;38952;51.090;-1.832;2022-08-25T03:34:20;4.53;;;3.80;;
51848;SDS011;38952;51.090;-1.832;2022-08-25T03:36:47;6.95;;;5.15;;
51848;SDS011;38952;51.090;-1.832;2022-08-25T03:39:14;4.88;;;4.15;;
51848;SDS011;38952;51.090;-1.832;2022-08-25T03:41:41;5.95;;;4.57;;
51848;SDS011;38952;51.090;-1.832;2022-08-25T03:44:07;4.28;;;3.47;;
51848;SDS011;38952;51.090;-1.832;2022-08-25T03:46:36;4.97;;;4.18;;
51848;SDS011;38952;51.090;-1.832;2022-08-25T03:49:11;7.72;;;4.25;;
51848;SDS011;38952;51.090;-1.832;2022-08-25T03:51:41;6.75;;;4.75;;
51848;SDS011;38952;51.090;-1.832;2022-08-25T03:54:17;3.30;;;3.00;;
51848;SDS011;38952;51.090;-1.832;2022-08-25T03:56:45;6.07;;;3.78;;
51848;SDS011;38952;51.090;-1.832;2022-08-25T03:59:11;3.67;;;3.08;;
51848;SDS011;38952;51.090;-1.832;2022-08-25T04:01:37;3.08;;;2.63;;
51848;SDS011;38952;51.090;-1.832;2022-08-25T04:04:05;5.70;;;3.80;;
51848;SDS011;38952;51.090;-1.832;2022-08-25T04:06:33;5.18;;;3.53;;
51848;SDS011;38952;51.090;-1.832;2022-08-25T04:08:59;3.80;;;2.47;;
51848;SDS011;38952;51.090;-1.832;2022-08-25T04:11:25;3.03;;;2.22;;
51848;SDS011;38952;51.090;-1.832;2022-08-25T04:13:52;3.03;;;2.60;;
51848;SDS011;38952;51.090;-1.832;2022-08-25T04:16:21;3.92;;;2.97;;
51848;SDS011;38952;51.090;-1.832;2022-08-25T04:18:48;3.35;;;2.42;;
51848;SDS011;38952;51.090;-1.832;2022-08-25T04:21:15;3.03;;;2.72;;
51848;SDS011;38952;51.090;-1.832;2022-08-25T04:23:43;2.88;;;2.40;;
51848;SDS011;38952;51.090;-1.832;2022-08-25T04:26:10;2.65;;;2.40;;
51848;SDS011;38952;51.090;-1.832;2022-08-25T04:28:40;3.65;;;2.60;;
51848;SDS011;38952;51.090;-1.832;2022-08-25T04:31:09;5.32;;;3.45;;
51848;SDS011;38952;51.090;-1.832;2022-08-25T04:33:36;3.63;;;3.08;;
51848;SDS011;38952;51.090;-1.832;2022-08-25T04:36:03;4.40;;;3.03;;
51848;SDS011;38952;51.090;-1.832;2022-08-25T04:38:30;4.93;;;3.35;;
51848;SDS011;38952;51.090;-1.832;2022-08-25T04:41:00;3.67;;;2.90;;
51848;SDS011;38952;51.090;-1.832;2022-08-25T04:43:27;3.67;;;2.38;;
51848;SDS011;38952;51.090;-1.832;2022-08-25T04:45:53;2.92;;;2.38;;
51848;SDS011;38952;51.090;-1.832;2022-08-25T04:48:19;8.05;;;3.00;;
51848;SDS011;38952;51.090;-1.832;2022-08-25T04:50:46;3.15;;;2.75;;
51848;SDS011;38952;51.090;-1.832;2022-08-25T04:53:11;3.53;;;3.05;;
51848;SDS011;38952;51.090;-1.832;2022-08-25T04:55:40;3.25;;;2.53;;
51848;SDS011;38952;51.090;-1.832;2022-08-25T04:58:07;2.65;;;2.08;;
51848;SDS011;38952;51.090;-1.832;2022-08-25T05:00:33;3.25;;;2.60;;
51848;SDS011;38952;51.090;-1.832;2022-08-25T05:03:00;2.92;;;2.33;;
51848;SDS011;38952;51.090;-1.832;2022-08-25T05:05:27;2.08;;;1.88;;
51848;SDS011;38952;51.090;-1.832;2022-08-25T05:07:52;1.67;;;1.42;;
51848;SDS011;38952;51.090;-1.832;2022-08-25T05:10:18;3.28;;;2.33;;
51848;SDS011;38952;51.090;-1.832;2022-08-25T05:12:44;2.88;;;1.80;;
51848;SDS011;38952;51.090;-1.832;2022-08-25T05:15:10;2.13;;;1.77;;
51848;SDS011;38952;51.090;-1.832;2022-08-25T05:17:57;3.22;;;2.45;;
51848;SDS011;38952;51.090;-1.832;2022-08-25T05:20:22;2.85;;;2.55;;
51848;SDS011;38952;51.090;-1.832;2022-08-25T05:22:48;2.05;;;1.85;;
51848;SDS011;38952;51.090;-1.832;2022-08-25T05:25:14;2.63;;;2.15;;
51848;SDS011;38952;51.090;-1.832;2022-08-25T05:27:40;3.55;;;2.28;;
51848;SDS011;38952;51.090;-1.832;2022-08-25T05:30:07;1.85;;;1.65;;
51848;SDS011;38952;51.090;-1.832;2022-08-25T05:32:34;2.30;;;2.03;;
51848;SDS011;38952;51.090;-1.832;2022-08-25T05:34:59;2.63;;;2.22;;
51848;SDS011;38952;51.090;-1.832;2022-08-25T05:37:25;1.58;;;1.48;;
51848;SDS011;38952;51.090;-1.832;2022-08-25T05:39:50;2.42;;;2.00;;
51848;SDS011;38952;51.090;-1.832;2022-08-25T05:42:16;2.47;;;2.00;;
51848;SDS011;38952;51.090;-1.832;2022-08-25T05:44:41;2.35;;;1.88;;
51848;SDS011;38952;51.090;-1.832;2022-08-25T05:47:07;5.68;;;2.20;;
51848;SDS011;38952;51.090;-1.832;2022-08-25T05:49:32;2.65;;;2.15;;
51848;SDS011;38952;51.090;-1.832;2022-08-25T05:51:57;2.58;;;2.20;;
51848;SDS011;38952;51.090;-1.832;2022-08-25T05:54:23;2.30;;;2.10;;
51848;SDS011;38952;51.090;-1.832;2022-08-25T05:56:51;2.88;;;2.50;;
51848;SDS011;38952;51.090;-1.832;2022-08-25T05:59:17;2.03;;;1.83;;
51848;SDS011;38952;51.090;-1.832;2022-08-25T06:01:43;2.50;;;1.83;;
51848;SDS011;38952;51.090;-1.832;2022-08-25T06:04:26;2.00;;;1.80;;
51848;SDS011;38952;51.090;-1.832;2022-08-25T06:06:52;2.95;;;1.90;;
51848;SDS011;38952;51.090;-1.832;2022-08-25T06:09:19;2.28;;;2.00;;
51848;SDS011;38952;51.090;-1.832;2022-08-25T06:11:48;3.75;;;2.42;;
51848;SDS011;38952;51.090;-1.832;2022-08-25T06:14:14;3.25;;;2.95;;
51848;SDS011;38952;51.090;-1.832;2022-08-25T06:16:40;5.40;;;3.30;;
51848;SDS011;38952;51.090;-1.832;2022-08-25T06:19:06;4.40;;;3.22;;
51848;SDS011;38952;51.090;-1.832;2022-08-25T06:21:33;4.22;;;3.45;;
51848;SDS011;38952;51.090;-1.832;2022-08-25T06:23:59;3.42;;;2.42;;
51848;SDS011;38952;51.090;-1.832;2022-08-25T06:26:25;2.80;;;2.17;;
51848;SDS011;38952;51.090;-1.832;2022-08-25T06:28:51;5.95;;;2.80;;
51848;SDS011;38952;51.090;-1.832;2022-08-25T06:31:17;2.60;;;2.33;;
51848;SDS011;38952;51.090;-1.832;2022-08-25T06:33:46;3.78;;;2.58;;
51848;SDS011;38952;51.090;-1.832;2022-08-25T06:36:12;7.15;;;2.45;;
51848;SDS011;38952;51.090;-1.832;2022-08-25T06:38:37;4.32;;;2.58;;
51848;SDS011;38952;51.090;-1.832;2022-08-25T06:41:03;2.72;;;2.20;;
51848;SDS011;38952;51.090;-1.832;2022-08-25T06:43:31;4.00;;;2.58;;
51848;SDS011;38952;51.090;-1.832;2022-08-25T06:45:58;3.63;;;2.50;;
51848;SDS011;38952;51.090;-1.832;2022-08-25T06:48:45;2.92;;;1.90;;
51848;SDS011;38952;51.090;-1.832;2022-08-25T06:51:11;3.22;;;2.13;;
51848;SDS011;38952;51.090;-1.832;2022-08-25T06:53:38;3.78;;;1.92;;
51848;SDS011;38952;51.090;-1.832;2022-08-25T06:56:04;3.22;;;2.10;;
51848;SDS011;38952;51.090;-1.832;2022-08-25T06:58:30;2.33;;;1.90;;
51848;SDS011;38952;51.090;-1.832;2022-08-25T07:01:04;4.50;;;2.70;;
51848;SDS011;38952;51.090;-1.832;2022-08-25T07:03:34;2.95;;;1.92;;
51848;SDS011;38952;51.090;-1.832;2022-08-25T07:06:00;3.85;;;2.33;;
51848;SDS011;38952;51.090;-1.832;2022-08-25T07:08:26;3.35;;;2.60;;
51848;SDS011;38952;51.090;-1.832;2022-08-25T07:10:51;6.80;;;3.55;;
51848;SDS011;38952;51.090;-1.832;2022-08-25T07:13:16;4.78;;;3.50;;
51848;SDS011;38952;51.090;-1.832;2022-08-25T07:15:42;2.97;;;2.22;;
51848;SDS011;38952;51.090;-1.832;2022-08-25T07:18:08;4.20;;;2.65;;
51848;SDS011;38952;51.090;-1.832;2022-08-25T07:20:36;3.10;;;2.40;;
51848;SDS011;38952;51.090;-1.832;2022-08-25T07:23:03;3.83;;;1.90;;
51848;SDS011;38952;51.090;-1.832;2022-08-25T07:25:41;3.40;;;1.60;;
51848;SDS011;38952;51.090;-1.832;2022-08-25T07:28:09;3.80;;;2.08;;
51848;SDS011;38952;51.090;-1.832;2022-08-25T07:30:57;1.60;;;1.38;;
51848;SDS011;38952;51.090;-1.832;2022-08-25T07:33:46;1.95;;;1.75;;
51848;SDS011;38952;51.090;-1.832;2022-08-25T07:36:50;2.22;;;1.95;;
51848;SDS011;38952;51.090;-1.832;2022-08-25T07:42:12;2.00;;;1.77;;
51848;SDS011;38952;51.090;-1.832;2022-08-25T07:44:45;3.13;;;2.00;;
51848;SDS011;38952;51.090;-1.832;2022-08-25T07:47:11;1.92;;;1.50;;
51848;SDS011;38952;51.090;-1.832;2022-08-25T07:49:44;1.85;;;1.13;;
51848;SDS011;38952;51.090;-1.832;2022-08-25T07:52:14;1.52;;;1.42;;
51848;SDS011;38952;51.090;-1.832;2022-08-25T07:54:42;1.10;;;1.00;;
51848;SDS011;38952;51.090;-1.832;2022-08-25T07:57:08;1.65;;;1.30;;
51848;SDS011;38952;51.090;-1.832;2022-08-25T07:59:34;1.65;;;1.30;;
51848;SDS011;38952;51.090;-1.832;2022-08-25T08:02:07;1.58;;;1.35;;
51848;SDS011;38952;51.090;-1.832;2022-08-25T08:04:36;1.65;;;1.05;;
51848;SDS011;38952;51.090;-1.832;2022-08-25T08:07:10;1.20;;;1.00;;
51848;SDS011;38952;51.090;-1.832;2022-08-25T08:10:00;1.90;;;1.10;;
51848;SDS011;38952;51.090;-1.832;2022-08-25T08:12:38;1.05;;;0.90;;
51848;SDS011;38952;51.090;-1.832;2022-08-25T08:15:44;0.52;;;0.52;;
51848;SDS011;38952;51.090;-1.832;2022-08-25T08:18:52;1.00;;;0.73;;
51848;SDS011;38952;51.090;-1.832;2022-08-25T08:21:36;1.40;;;0.65;;
51848;SDS011;38952;51.090;-1.832;2022-08-25T08:24:44;0.80;;;0.63;;
51848;SDS011;38952;51.090;-1.832;2022-08-25T08:27:29;0.55;;;0.40;;
51848;SDS011;38952;51.090;-1.832;2022-08-25T08:33:33;1.33;;;0.70;;
51848;SDS011;38952;51.090;-1.832;2022-08-25T08:36:16;1.73;;;0.75;;
51848;SDS011;38952;51.090;-1.832;2022-08-25T09:03:43;1.40;;;0.90;;
51848;SDS011;38952;51.090;-1.832;2022-08-25T09:06:52;1.90;;;1.42;;
51848;SDS011;38952;51.090;-1.832;2022-08-25T09:09:24;1.48;;;1.15;;
51848;SDS011;38952;51.090;-1.832;2022-08-25T09:12:30;1.60;;;1.20;;
51848;SDS011;38952;51.090;-1.832;2022-08-25T09:18:22;1.83;;;1.40;;
51848;SDS011;38952;51.090;-1.832;2022-08-25T09:21:18;1.60;;;1.10;;
51848;SDS011;38952;51.090;-1.832;2022-08-25T09:26:48;3.20;;;1.40;;
51848;SDS011;38952;51.090;-1.832;2022-08-25T09:29:41;2.80;;;1.75;;
51848;SDS011;38952;51.090;-1.832;2022-08-25T09:32:52;1.75;;;1.10;;
51848;SDS011;38952;51.090;-1.832;2022-08-25T09:35:32;1.80;;;1.23;;
51848;SDS011;38952;51.090;-1.832;2022-08-25T10:37:52;1.75;;;1.50;;
51848;SDS011;38952;51.090;-1.832;2022-08-25T10:40:55;1.67;;;1.35;;
51848;SDS011;38952;51.090;-1.832;2022-08-25T10:43:35;1.30;;;1.20;;
51848;SDS011;38952;51.090;-1.832;2022-08-25T10:51:48;5.93;;;2.25;;
51848;SDS011;38952;51.090;-1.832;2022-08-25T11:05:11;3.92;;;2.75;;
51848;SDS011;38952;51.090;-1.832;2022-08-25T11:07:45;4.70;;;3.03;;
51848;SDS011;38952;51.090;-1.832;2022-08-25T11:10:18;5.65;;;3.67;;
51848;SDS011;38952;51.090;-1.832;2022-08-25T11:12:59;4.63;;;3.33;;
51848;SDS011;38952;51.090;-1.832;2022-08-25T11:15:35;6.63;;;3.85;;
51848;SDS011;38952;51.090;-1.832;2022-08-25T11:18:08;4.50;;;3.25;;
51848;SDS011;38952;51.090;-1.832;2022-08-25T11:23:27;4.53;;;3.92;;
51848;SDS011;38952;51.090;-1.832;2022-08-25T11:26:02;8.75;;;4.25;;
51848;SDS011;38952;51.090;-1.832;2022-08-25T11:28:56;9.82;;;5.07;;
51848;SDS011;38952;51.090;-1.832;2022-08-25T11:31:51;3.60;;;2.92;;
51848;SDS011;38952;51.090;-1.832;2022-08-25T11:34:46;5.15;;;4.40;;
51848;SDS011;38952;51.090;-1.832;2022-08-25T11:37:56;5.32;;;4.13;;
51848;SDS011;38952;51.090;-1.832;2022-08-25T11:41:02;5.60;;;5.00;;
51848;SDS011;38952;51.090;-1.832;2022-08-25T11:52:56;6.57;;;4.28;;
51848;SDS011;38952;51.090;-1.832;2022-08-25T12:07:20;5.45;;;4.20;;
51848;SDS011;38952;51.090;-1.832;2022-08-25T12:10:14;4.97;;;3.60;;
51848;SDS011;38952;51.090;-1.832;2022-08-25T12:16:01;6.97;;;4.78;;
51848;SDS011;38952;51.090;-1.832;2022-08-25T12:38:43;5.90;;;3.28;;
51848;SDS011;38952;51.090;-1.832;2022-08-25T12:41:13;4.00;;;3.60;;
51848;SDS011;38952;51.090;-1.832;2022-08-25T12:43:52;4.38;;;2.97;;
51848;SDS011;38952;51.090;-1.832;2022-08-25T12:46:34;2.78;;;2.42;;
51848;SDS011;38952;51.090;-1.832;2022-08-25T12:54:53;2.92;;;2.50;;
51848;SDS011;38952;51.090;-1.832;2022-08-25T13:10:47;4.90;;;2.53;;
51848;SDS011;38952;51.090;-1.832;2022-08-25T13:16:05;3.35;;;2.60;;
51848;SDS011;38952;51.090;-1.832;2022-08-25T13:18:34;2.83;;;2.05;;
51848;SDS011;38952;51.090;-1.832;2022-08-25T13:21:03;4.55;;;1.95;;
51848;SDS011;38952;51.090;-1.832;2022-08-25T13:23:38;4.63;;;1.95;;
51848;SDS011;38952;51.090;-1.832;2022-08-25T13:26:06;2.60;;;1.70;;
51848;SDS011;38952;51.090;-1.832;2022-08-25T13:28:37;2.30;;;1.67;;
51848;SDS011;38952;51.090;-1.832;2022-08-25T13:31:16;1.58;;;1.48;;
51848;SDS011;38952;51.090;-1.832;2022-08-25T13:33:50;2.30;;;1.55;;
51848;SDS011;38952;51.090;-1.832;2022-08-25T13:36:20;2.20;;;1.50;;
51848;SDS011;38952;51.090;-1.832;2022-08-25T13:39:16;1.67;;;1.40;;
51848;SDS011;38952;51.090;-1.832;2022-08-25T13:41:49;1.77;;;1.25;;
51848;SDS011;38952;51.090;-1.832;2022-08-25T13:44:17;1.27;;;1.17;;
51848;SDS011;38952;51.090;-1.832;2022-08-25T13:46:44;1.10;;;0.95;;
51848;SDS011;38952;51.090;-1.832;2022-08-25T13:49:11;1.65;;;0.80;;
51848;SDS011;38952;51.090;-1.832;2022-08-25T13:51:52;1.70;;;1.20;;
51848;SDS011;38952;51.090;-1.832;2022-08-25T13:54:29;1.15;;;1.00;;
51848;SDS011;38952;51.090;-1.832;2022-08-25T13:59:47;1.35;;;0.90;;
51848;SDS011;38952;51.090;-1.832;2022-08-25T14:02:37;0.60;;;0.57;;
51848;SDS011;38952;51.090;-1.832;2022-08-25T14:05:12;3.13;;;0.50;;
51848;SDS011;38952;51.090;-1.832;2022-08-25T14:07:38;0.80;;;0.80;;
51848;SDS011;38952;51.090;-1.832;2022-08-25T14:10:09;3.22;;;0.88;;
51848;SDS011;38952;51.090;-1.832;2022-08-25T14:13:58;1.27;;;0.57;;
51848;SDS011;38952;51.090;-1.832;2022-08-25T14:15:51;0.70;;;0.65;;
51848;SDS011;38952;51.090;-1.832;2022-08-25T14:18:18;3.70;;;0.68;;
51848;SDS011;38952;51.090;-1.832;2022-08-25T14:20:47;1.20;;;0.95;;
51848;SDS011;38952;51.090;-1.832;2022-08-25T14:23:18;1.25;;;1.02;;
51848;SDS011;38952;51.090;-1.832;2022-08-25T14:25:47;1.17;;;0.70;;
51848;SDS011;38952;51.090;-1.832;2022-08-25T14:28:15;0.95;;;0.85;;
51848;SDS011;38952;51.090;-1.832;2022-08-25T14:30:45;1.35;;;1.25;;
51848;SDS011;38952;51.090;-1.832;2022-08-25T14:33:27;1.83;;;1.00;;
51848;SDS011;38952;51.090;-1.832;2022-08-25T14:35:59;0.63;;;0.63;;
51848;SDS011;38952;51.090;-1.832;2022-08-25T14:38:31;0.93;;;0.82;;
51848;SDS011;38952;51.090;-1.832;2022-08-25T14:40:58;1.17;;;0.90;;
51848;SDS011;38952;51.090;-1.832;2022-08-25T14:43:23;2.17;;;1.30;;
51848;SDS011;38952;51.090;-1.832;2022-08-25T14:45:49;1.88;;;1.60;;
51848;SDS011;38952;51.090;-1.832;2022-08-25T14:50:52;5.35;;;1.98;;
51848;SDS011;38952;51.090;-1.832;2022-08-25T14:56:28;1.25;;;0.88;;
51848;SDS011;38952;51.090;-1.832;2022-08-25T14:59:02;1.55;;;0.82;;
51848;SDS011;38952;51.090;-1.832;2022-08-25T15:01:31;2.83;;;0.90;;
51848;SDS011;38952;51.090;-1.832;2022-08-25T15:03:59;1.20;;;1.05;;
51848;SDS011;38952;51.090;-1.832;2022-08-25T15:06:27;1.30;;;0.90;;
51848;SDS011;38952;51.090;-1.832;2022-08-25T15:08:53;1.23;;;0.90;;
51848;SDS011;38952;51.090;-1.832;2022-08-25T15:11:41;0.90;;;0.73;;
51848;SDS011;38952;51.090;-1.832;2022-08-25T15:14:14;1.23;;;1.00;;
51848;SDS011;38952;51.090;-1.832;2022-08-25T15:16:48;2.08;;;0.60;;
51848;SDS011;38952;51.090;-1.832;2022-08-25T15:19:24;1.70;;;1.00;;
51848;SDS011;38952;51.090;-1.832;2022-08-25T15:21:56;1.83;;;1.08;;
51848;SDS011;38952;51.090;-1.832;2022-08-25T15:24:25;1.73;;;0.75;;
51848;SDS011;38952;51.090;-1.832;2022-08-25T15:26:53;1.00;;;0.80;;
51848;SDS011;38952;51.090;-1.832;2022-08-25T15:29:24;1.02;;;0.70;;
51848;SDS011;38952;51.090;-1.832;2022-08-25T15:31:53;0.52;;;0.52;;
51848;SDS011;38952;51.090;-1.832;2022-08-25T15:34:25;1.20;;;0.70;;
51848;SDS011;38952;51.090;-1.832;2022-08-25T15:36:52;0.75;;;0.52;;
51848;SDS011;38952;51.090;-1.832;2022-08-25T15:39:17;0.55;;;0.50;;
51848;SDS011;38952;51.090;-1.832;2022-08-25T15:41:44;1.60;;;0.60;;
51848;SDS011;38952;51.090;-1.832;2022-08-25T15:44:10;0.90;;;0.70;;
51848;SDS011;38952;51.090;-1.832;2022-08-25T15:46:35;0.75;;;0.52;;
51848;SDS011;38952;51.090;-1.832;2022-08-25T15:49:05;2.58;;;0.40;;
51848;SDS011;38952;51.090;-1.832;2022-08-25T15:51:31;0.47;;;0.47;;
51848;SDS011;38952;51.090;-1.832;2022-08-25T15:53:57;0.43;;;0.40;;
51848;SDS011;38952;51.090;-1.832;2022-08-25T15:56:40;0.88;;;0.40;;
51848;SDS011;38952;51.090;-1.832;2022-08-25T15:59:07;0.32;;;0.30;;
51848;SDS011;38952;51.090;-1.832;2022-08-25T16:01:37;0.75;;;0.40;;
51848;SDS011;38952;51.090;-1.832;2022-08-25T16:04:03;0.77;;;0.38;;
51848;SDS011;38952;51.090;-1.832;2022-08-25T16:06:41;0.45;;;0.35;;
51848;SDS011;38952;51.090;-1.832;2022-08-25T16:09:07;0.20;;;0.20;;
51848;SDS011;38952;51.090;-1.832;2022-08-25T16:11:32;0.40;;;0.35;;
51848;SDS011;38952;51.090;-1.832;2022-08-25T16:14:02;0.40;;;0.40;;
51848;SDS011;38952;51.090;-1.832;2022-08-25T16:16:29;0.40;;;0.40;;
51848;SDS011;38952;51.090;-1.832;2022-08-25T16:18:58;0.20;;;0.20;;
51848;SDS011;38952;51.090;-1.832;2022-08-25T16:21:25;0.47;;;0.47;;
51848;SDS011;38952;51.090;-1.832;2022-08-25T16:23:53;0.88;;;0.40;;
51848;SDS011;38952;51.090;-1.832;2022-08-25T16:26:25;1.25;;;0.40;;
51848;SDS011;38952;51.090;-1.832;2022-08-25T16:28:51;0.45;;;0.40;;
51848;SDS011;38952;51.090;-1.832;2022-08-25T16:31:17;0.43;;;0.40;;
51848;SDS011;38952;51.090;-1.832;2022-08-25T16:33:43;0.93;;;0.50;;
51848;SDS011;38952;51.090;-1.832;2022-08-25T16:36:11;1.23;;;0.50;;
51848;SDS011;38952;51.090;-1.832;2022-08-25T16:38:39;0.43;;;0.40;;
51848;SDS011;38952;51.090;-1.832;2022-08-25T16:41:06;0.20;;;0.20;;
51848;SDS011;38952;51.090;-1.832;2022-08-25T16:43:33;0.30;;;0.30;;
51848;SDS011;38952;51.090;-1.832;2022-08-25T16:45:59;0.73;;;0.40;;
51848;SDS011;38952;51.090;-1.832;2022-08-25T16:48:27;0.40;;;0.30;;
51848;SDS011;38952;51.090;-1.832;2022-08-25T16:50:53;0.30;;;0.30;;
51848;SDS011;38952;51.090;-1.832;2022-08-25T16:53:19;0.40;;;0.40;;
51848;SDS011;38952;51.090;-1.832;2022-08-25T16:56:03;0.38;;;0.38;;
51848;SDS011;38952;51.090;-1.832;2022-08-25T16:58:30;0.30;;;0.30;;
51848;SDS011;38952;51.090;-1.832;2022-08-25T17:01:04;0.77;;;0.40;;
51848;SDS011;38952;51.090;-1.832;2022-08-25T17:03:31;0.30;;;0.30;;
51848;SDS011;38952;51.090;-1.832;2022-08-25T17:05:58;1.15;;;0.35;;
51848;SDS011;38952;51.090;-1.832;2022-08-25T17:08:24;0.50;;;0.50;;
51848;SDS011;38952;51.090;-1.832;2022-08-25T17:10:53;0.35;;;0.30;;
51848;SDS011;38952;51.090;-1.832;2022-08-25T17:13:26;0.93;;;0.45;;
51848;SDS011;38952;51.090;-1.832;2022-08-25T17:15:53;0.35;;;0.35;;
51848;SDS011;38952;51.090;-1.832;2022-08-25T17:18:18;0.30;;;0.30;;
51848;SDS011;38952;51.090;-1.832;2022-08-25T17:20:44;0.32;;;0.32;;
51848;SDS011;38952;51.090;-1.832;2022-08-25T17:23:10;0.30;;;0.28;;
51848;SDS011;38952;51.090;-1.832;2022-08-25T17:25:36;0.65;;;0.60;;
51848;SDS011;38952;51.090;-1.832;2022-08-25T17:28:02;0.63;;;0.60;;
51848;SDS011;38952;51.090;-1.832;2022-08-25T17:30:28;0.60;;;0.50;;
51848;SDS011;38952;51.090;-1.832;2022-08-25T17:32:54;1.10;;;0.60;;
51848;SDS011;38952;51.090;-1.832;2022-08-25T17:35:20;0.63;;;0.55;;
51848;SDS011;38952;51.090;-1.832;2022-08-25T17:37:45;1.80;;;0.50;;
51848;SDS011;38952;51.090;-1.832;2022-08-25T17:40:11;0.40;;;0.40;;
51848;SDS011;38952;51.090;-1.832;2022-08-25T17:42:37;0.40;;;0.40;;
51848;SDS011;38952;51.090;-1.832;2022-08-25T17:45:04;0.60;;;0.35;;
51848;SDS011;38952;51.090;-1.832;2022-08-25T17:47:30;0.77;;;0.60;;
51848;SDS011;38952;51.090;-1.832;2022-08-25T17:49:55;0.60;;;0.60;;
51848;SDS011;38952;51.090;-1.832;2022-08-25T17:52:21;0.93;;;0.63;;
51848;SDS011;38952;51.090;-1.832;2022-08-25T17:54:47;2.80;;;0.80;;
51848;SDS011;38952;51.090;-1.832;2022-08-25T17:57:15;1.40;;;0.60;;
51848;SDS011;38952;51.090;-1.832;2022-08-25T17:59:40;0.73;;;0.50;;
51848;SDS011;38952;51.090;-1.832;2022-08-25T18:02:06;0.50;;;0.50;;
51848;SDS011;38952;51.090;-1.832;2022-08-25T18:04:33;0.70;;;0.70;;
51848;SDS011;38952;51.090;-1.832;2022-08-25T18:06:59;0.80;;;0.50;;
51848;SDS011;38952;51.090;-1.832;2022-08-25T18:09:25;0.65;;;0.40;;